createdAt,value
2022-09-10T00:01:37.945Z,101646.69
2022-09-10T00:04:11.955Z,101646.56
2022-09-10T00:06:39.673Z,101646.69
2022-09-10T00:09:08.344Z,101643.88
2022-09-10T00:11:38.925Z,101639.50
2022-09-10T00:14:09.518Z,101639.00
2022-09-10T00:16:37.042Z,101643.66
2022-09-10T00:19:04.935Z,101643.59
2022-09-10T00:21:32.906Z,101639.88
2022-09-10T00:24:02.276Z,101647.53
2022-09-10T00:26:38.873Z,101639.72
2022-09-10T00:29:09.390Z,101649.00
2022-09-10T00:31:38.135Z,101641.66
2022-09-10T00:34:07.150Z,101640.41
2022-09-10T00:36:40.615Z,101638.44
2022-09-10T00:39:14.281Z,101628.25
2022-09-10T00:41:44.440Z,101637.31
2022-09-10T00:44:43.105Z,101628.34
2022-09-10T00:47:22.540Z,101632.03
2022-09-10T00:50:17.503Z,101632.41
2022-09-10T00:52:47.683Z,101627.16
2022-09-10T00:55:17.637Z,101627.22
2022-09-10T00:57:48.277Z,101631.06
2022-09-10T01:00:16.734Z,101627.75
2022-09-10T01:02:47.844Z,101626.38
2022-09-10T01:05:16.075Z,101628.59
2022-09-10T01:07:44.236Z,101628.13
2022-09-10T01:10:20.754Z,101618.59
2022-09-10T01:13:01.640Z,101616.91
2022-09-10T01:15:47.338Z,101612.81
2022-09-10T01:18:17.702Z,101610.44
2022-09-10T01:21:03.381Z,101610.09
2022-09-10T01:23:49.358Z,101607.94
2022-09-10T01:27:07.108Z,101609.09
2022-09-10T01:30:08.231Z,101604.66
2022-09-10T01:32:59.653Z,101602.03
2022-09-10T01:35:39.053Z,101607.59
2022-09-10T01:38:13.643Z,101612.19
2022-09-10T01:40:42.744Z,101615.94
2022-09-10T01:43:14.259Z,101611.59
2022-09-10T01:45:55.584Z,101615.53
2022-09-10T01:48:43.407Z,101607.94
2022-09-10T01:51:17.142Z,101609.25
2022-09-10T01:54:16.734Z,101613.72
2022-09-10T01:57:03.268Z,101614.09
2022-09-10T01:59:54.744Z,101610.78
2022-09-10T02:02:31.132Z,101622.59
2022-09-10T02:05:01.608Z,101608.19
2022-09-10T02:07:35.515Z,101618.00
2022-09-10T02:10:08.505Z,101611.50
2022-09-10T02:12:42.621Z,101611.59
2022-09-10T02:15:29.196Z,101618.34
2022-09-10T02:18:17.249Z,101609.84
2022-09-10T02:20:46.171Z,101615.16
2022-09-10T02:23:19.019Z,101611.75
2022-09-10T02:25:48.795Z,101602.44
2022-09-10T02:28:17.024Z,101608.13
2022-09-10T02:30:45.641Z,101609.16
2022-09-10T02:33:16.539Z,101608.19
2022-09-10T02:35:44.372Z,101606.47
2022-09-10T02:38:14.100Z,101600.22
2022-09-10T02:40:43.603Z,101595.63
2022-09-10T02:43:11.216Z,101593.75
2022-09-10T02:45:40.476Z,101594.25
2022-09-10T02:48:08.072Z,101590.56
2022-09-10T02:50:37.110Z,101591.03
2022-09-10T02:53:06.337Z,101588.66
2022-09-10T02:55:33.912Z,101586.13
2022-09-10T02:58:01.442Z,101585.88
2022-09-10T03:00:29.374Z,101578.28
2022-09-10T03:03:02.333Z,101582.06
2022-09-10T03:05:30.664Z,101587.72
2022-09-10T03:07:58.412Z,101582.00
2022-09-10T03:10:26.432Z,101576.81
2022-09-10T03:12:54.956Z,101578.38
2022-09-10T03:15:23.724Z,101579.19
2022-09-10T03:17:52.153Z,101583.06
2022-09-10T03:20:24.488Z,101587.31
2022-09-10T03:22:53.521Z,101585.19
2022-09-10T03:25:22.923Z,101582.72
2022-09-10T03:27:50.239Z,101585.56
2022-09-10T03:30:17.964Z,101584.88
2022-09-10T03:32:46.107Z,101578.97
2022-09-10T03:35:16.238Z,101583.72
2022-09-10T03:37:44.762Z,101585.94
2022-09-10T03:40:12.585Z,101588.06
2022-09-10T03:42:39.950Z,101585.34
2022-09-10T03:45:08.334Z,101588.53
2022-09-10T03:47:39.069Z,101590.28
2022-09-10T03:50:07.876Z,101586.63
2022-09-10T03:52:36.957Z,101591.13
2022-09-10T03:55:04.981Z,101590.19
2022-09-10T03:57:33.064Z,101590.66
2022-09-10T04:00:00.609Z,101588.41
2022-09-10T04:02:28.864Z,101580.88
2022-09-10T04:04:57.014Z,101583.34
2022-09-10T04:07:24.431Z,101580.16
2022-09-10T04:09:52.541Z,101588.16
2022-09-10T04:12:20.206Z,101592.66
2022-09-10T04:14:49.016Z,101588.28
2022-09-10T04:17:18.237Z,101584.28
2022-09-10T04:19:46.475Z,101587.91
2022-09-10T04:22:14.335Z,101587.31
2022-09-10T04:24:42.329Z,101580.13
2022-09-10T04:27:10.257Z,101579.78
2022-09-10T04:29:38.952Z,101582.41
2022-09-10T04:32:07.026Z,101580.50
2022-09-10T04:34:37.852Z,101581.09
2022-09-10T04:37:08.656Z,101584.28
2022-09-10T04:39:37.756Z,101587.56
2022-09-10T04:42:07.052Z,101577.31
2022-09-10T04:44:34.654Z,101581.91
2022-09-10T04:47:03.204Z,101585.31
2022-09-10T04:49:31.189Z,101577.44
2022-09-10T04:51:58.674Z,101580.63
2022-09-10T04:54:27.109Z,101576.28
2022-09-10T04:56:55.660Z,101579.56
2022-09-10T04:59:24.620Z,101579.56
2022-09-10T05:02:02.299Z,101587.81
2022-09-10T05:04:37.684Z,101587.81
2022-09-10T05:07:16.315Z,101586.75
2022-09-10T05:09:49.785Z,101586.75
2022-09-10T05:12:20.239Z,101584.75
2022-09-10T05:14:49.586Z,101591.59
2022-09-10T05:17:18.091Z,101593.47
2022-09-10T05:19:48.896Z,101595.94
2022-09-10T05:22:16.964Z,101597.09
2022-09-10T05:24:45.611Z,101602.06
2022-09-10T05:27:13.977Z,101601.25
2022-09-10T05:29:41.736Z,101602.53
2022-09-10T05:32:10.861Z,101608.75
2022-09-10T05:34:40.297Z,101606.63
2022-09-10T05:37:09.316Z,101618.06
2022-09-10T05:39:38.077Z,101610.66
2022-09-10T05:42:07.713Z,101611.72
2022-09-10T05:44:37.371Z,101614.06
2022-09-10T05:47:05.093Z,101618.44
2022-09-10T05:49:35.752Z,101629.28
2022-09-10T05:52:04.579Z,101632.22
2022-09-10T05:54:32.309Z,101633.66
2022-09-10T05:57:00.655Z,101630.88
2022-09-10T05:59:30.261Z,101629.72
2022-09-10T06:01:58.656Z,101633.81
2022-09-10T06:04:27.959Z,101636.66
2022-09-10T06:06:56.704Z,101635.13
2022-09-10T06:09:25.119Z,101637.28
2022-09-10T06:12:07.163Z,101630.44
2022-09-10T06:14:36.282Z,101632.66
2022-09-10T06:17:04.962Z,101627.97
2022-09-10T06:19:33.636Z,101635.50
2022-09-10T06:22:01.333Z,101638.94
2022-09-10T06:24:31.550Z,101639.75
2022-09-10T06:27:00.240Z,101639.75
2022-09-10T06:29:30.684Z,101638.47
2022-09-10T06:32:01.106Z,101645.53
2022-09-10T06:34:29.082Z,101642.97
2022-09-10T06:36:58.873Z,101649.69
2022-09-10T06:39:29.103Z,101645.44
2022-09-10T06:42:00.086Z,101645.44
2022-09-10T06:44:51.056Z,101652.06
2022-09-10T06:48:06.781Z,101660.56
2022-09-10T06:50:21.211Z,101662.41
2022-09-10T06:52:50.863Z,101652.06
2022-09-10T06:55:24.075Z,101661.69
2022-09-10T06:57:52.185Z,101658.88
2022-09-10T07:00:21.074Z,101654.50
2022-09-10T07:02:52.729Z,101667.44
2022-09-10T07:05:22.133Z,101663.00
2022-09-10T07:07:53.259Z,101667.84
2022-09-10T07:10:21.832Z,101663.00
2022-09-10T07:12:51.102Z,101670.03
2022-09-10T07:15:20.586Z,101664.78
2022-09-10T07:17:49.403Z,101662.34
2022-09-10T07:20:17.731Z,101669.34
2022-09-10T07:22:47.184Z,101665.59
2022-09-10T07:25:16.115Z,101655.41
2022-09-10T07:27:58.536Z,101662.41
2022-09-10T07:30:26.591Z,101661.31
2022-09-10T07:32:55.704Z,101667.81
2022-09-10T07:35:27.453Z,101672.81
2022-09-10T07:37:55.220Z,101674.78
2022-09-10T07:40:23.925Z,101674.38
2022-09-10T07:42:52.918Z,101676.41
2022-09-10T07:45:23.953Z,101677.31
2022-09-10T07:47:54.739Z,101677.06
2022-09-10T07:50:22.496Z,101676.09
2022-09-10T07:52:55.035Z,101674.25
2022-09-10T07:55:24.947Z,101672.50
2022-09-10T07:57:56.268Z,101672.94
2022-09-10T08:00:25.616Z,101674.28
2022-09-10T08:02:57.326Z,101672.25
2022-09-10T08:05:29.142Z,101678.47
2022-09-10T08:08:02.171Z,101680.81
2022-09-10T08:10:30.000Z,101681.91
2022-09-10T08:12:59.774Z,101689.50
2022-09-10T08:15:27.074Z,101687.72
2022-09-10T08:17:56.102Z,101687.06
2022-09-10T08:20:25.622Z,101687.94
2022-09-10T08:22:57.800Z,101690.53
2022-09-10T08:25:29.476Z,101681.94
2022-09-10T08:27:58.220Z,101684.22
2022-09-10T08:30:26.210Z,101682.19
2022-09-10T08:32:55.132Z,101683.88
2022-09-10T08:35:22.640Z,101680.09
2022-09-10T08:37:55.155Z,101686.91
2022-09-10T08:40:26.598Z,101680.34
2022-09-10T08:43:03.514Z,101683.91
2022-09-10T08:45:36.480Z,101679.75
2022-09-10T08:48:41.435Z,101682.75
2022-09-10T08:51:25.511Z,101683.75
2022-09-10T08:54:17.278Z,101689.22
2022-09-10T08:56:51.598Z,101686.47
2022-09-10T08:59:38.161Z,101688.16
2022-09-10T09:02:47.177Z,101688.16
2022-09-10T09:05:20.704Z,101694.94
2022-09-10T09:07:52.885Z,101687.59
2022-09-10T09:10:26.457Z,101690.34
2022-09-10T09:13:26.993Z,101691.16
2022-09-10T09:16:10.958Z,101695.00
2022-09-10T09:19:02.985Z,101697.78
2022-09-10T09:21:40.153Z,101707.84
2022-09-10T09:24:22.809Z,101703.25
2022-09-10T09:27:02.229Z,101698.06
2022-09-10T09:29:38.501Z,101706.88
2022-09-10T09:32:11.017Z,101702.56
2022-09-10T09:34:50.883Z,101702.84
2022-09-10T09:37:24.994Z,101699.06
2022-09-10T09:39:59.974Z,101697.16
2022-09-10T09:42:41.011Z,101694.13
2022-09-10T09:45:35.365Z,101697.06
2022-09-10T09:48:04.995Z,101695.47
2022-09-10T09:50:36.021Z,101694.16
2022-09-10T09:53:04.217Z,101686.56
2022-09-10T09:55:46.565Z,101693.75
2022-09-10T09:58:22.088Z,101690.50
2022-09-10T10:01:06.227Z,101689.44
2022-09-10T10:03:53.870Z,101691.91
2022-09-10T10:06:28.064Z,101689.78
2022-09-10T10:09:20.536Z,101699.13
2022-09-10T10:11:56.216Z,101688.28
2022-09-10T10:14:28.871Z,101683.94
2022-09-10T10:17:00.532Z,101687.78
2022-09-10T10:19:40.539Z,101682.88
2022-09-10T10:22:20.449Z,101680.72
2022-09-10T10:24:50.629Z,101682.34
2022-09-10T10:27:20.201Z,101681.56
2022-09-10T10:29:57.600Z,101675.81
2022-09-10T10:32:40.190Z,101669.78
2022-09-10T10:35:29.794Z,101666.25
2022-09-10T10:38:19.302Z,101664.88
2022-09-10T10:41:04.066Z,101667.06
2022-09-10T10:43:37.489Z,101663.22
2022-09-10T10:46:20.913Z,101663.25
2022-09-10T10:48:48.532Z,101660.75
2022-09-10T10:51:32.456Z,101659.94
2022-09-10T10:54:06.978Z,101660.22
2022-09-10T10:56:56.712Z,101657.22
2022-09-10T10:59:46.329Z,101668.72
2022-09-10T11:02:21.983Z,101652.84
2022-09-10T11:04:55.145Z,101649.00
2022-09-10T11:07:40.513Z,101651.19
2022-09-10T11:10:54.981Z,101643.56
2022-09-10T11:13:32.079Z,101642.22
2022-09-10T11:16:20.511Z,101640.84
2022-09-10T11:18:54.388Z,101643.31
2022-09-10T11:21:31.899Z,101641.13
2022-09-10T11:24:25.170Z,101637.84
2022-09-10T11:27:03.644Z,101626.63
2022-09-10T11:29:40.977Z,101635.41
2022-09-10T11:32:30.785Z,101624.72
2022-09-10T11:35:09.396Z,101623.34
2022-09-10T11:37:45.862Z,101627.16
2022-09-10T11:40:44.024Z,101623.34
2022-09-10T11:43:15.918Z,101625.28
2022-09-10T11:45:53.895Z,101628.28
2022-09-10T11:49:05.564Z,101617.34
2022-09-10T11:51:38.673Z,101617.06
2022-09-10T11:54:13.963Z,101607.78
2022-09-10T11:57:10.349Z,101604.25
2022-09-10T12:00:12.050Z,101609.97
2022-09-10T12:02:51.679Z,101605.03
2022-09-10T12:05:30.527Z,101594.38
2022-09-10T12:08:15.368Z,101602.88
2022-09-10T12:11:01.305Z,101592.19
2022-09-10T12:13:28.694Z,101602.31
2022-09-10T12:16:00.189Z,101587.81
2022-09-10T12:18:37.042Z,101584.78
2022-09-10T12:21:34.750Z,101579.84
2022-09-10T12:24:07.560Z,101575.75
2022-09-10T12:26:45.618Z,101577.94
2022-09-10T12:29:29.875Z,101579.00
2022-09-10T12:32:12.587Z,101568.56
2022-09-10T12:34:41.024Z,101569.66
2022-09-10T12:37:21.494Z,101569.19
2022-09-10T12:39:50.166Z,101560.41
2022-09-10T12:42:28.411Z,101560.94
2022-09-10T12:44:56.602Z,101559.28
2022-09-10T12:47:40.431Z,101555.97
2022-09-10T12:50:22.006Z,101548.84
2022-09-10T12:52:51.839Z,101541.78
2022-09-10T12:55:22.365Z,101541.22
2022-09-10T12:58:24.227Z,101548.63
2022-09-10T13:00:54.748Z,101534.38
2022-09-10T13:03:38.396Z,101526.75
2022-09-10T13:06:07.930Z,101541.53
2022-09-10T13:08:44.095Z,101528.66
2022-09-10T13:11:14.945Z,101513.56
2022-09-10T13:13:51.284Z,101511.97
2022-09-10T13:16:39.233Z,101513.34
2022-09-10T13:19:19.108Z,101509.81
2022-09-10T13:21:51.588Z,101498.31
2022-09-10T13:24:34.763Z,101499.38
2022-09-10T13:27:35.229Z,101493.13
2022-09-10T13:30:19.688Z,101493.13
2022-09-10T13:33:07.469Z,101494.25
2022-09-10T13:35:55.445Z,101483.34
2022-09-10T13:38:29.150Z,101482.81
2022-09-10T13:41:21.637Z,101492.34
2022-09-10T13:44:08.145Z,101484.97
2022-09-10T13:46:45.514Z,101484.72
2022-09-10T13:49:57.930Z,101478.09
2022-09-10T13:52:33.449Z,101475.91
2022-09-10T13:55:03.282Z,101470.16
2022-09-10T13:57:41.252Z,101460.81
2022-09-10T14:00:25.967Z,101472.00
2022-09-10T14:02:56.795Z,101469.81
2022-09-10T14:05:48.570Z,101465.19
2022-09-10T14:08:26.295Z,101466.28
2022-09-10T14:11:08.563Z,101472.84
2022-09-10T14:14:01.825Z,101460.06
2022-09-10T14:16:44.481Z,101454.31
2022-09-10T14:19:26.035Z,101461.47
2022-09-10T14:22:22.766Z,101469.16
2022-09-10T14:24:57.081Z,101459.31
2022-09-10T14:27:28.296Z,101455.50
2022-09-10T14:29:57.384Z,101442.94
2022-09-10T14:32:33.631Z,101448.97
2022-09-10T14:35:36.407Z,101449.25
2022-09-10T14:38:09.514Z,101446.78
2022-09-10T14:40:38.226Z,101450.38
2022-09-10T14:43:27.637Z,101451.47
2022-09-10T14:45:55.361Z,101443.81
2022-09-10T14:48:28.513Z,101440.00
2022-09-10T14:51:18.708Z,101438.63
2022-09-10T14:53:51.049Z,101434.00
2022-09-10T14:56:35.946Z,101426.63
2022-09-10T14:59:12.331Z,101427.72
2022-09-10T15:01:42.956Z,101416.22
2022-09-10T15:04:18.468Z,101413.44
2022-09-10T15:06:46.151Z,101427.66
2022-09-10T15:09:15.273Z,101422.47
2022-09-10T15:11:59.438Z,101415.06
2022-09-10T15:14:27.183Z,101412.88
2022-09-10T15:16:55.798Z,101411.75
2022-09-10T15:19:24.236Z,101401.88
2022-09-10T15:21:52.955Z,101405.13
2022-09-10T15:24:22.728Z,101391.41
2022-09-10T15:26:50.817Z,101399.53
2022-09-10T15:29:18.711Z,101387.44
2022-09-10T15:31:46.147Z,101385.47
2022-09-10T15:34:14.636Z,101386.28
2022-09-10T15:36:42.672Z,101385.94
2022-09-10T15:39:13.668Z,101392.59
2022-09-10T15:41:43.424Z,101388.84
2022-09-10T15:44:16.154Z,101387.53
2022-09-10T15:46:45.607Z,101382.94
2022-09-10T15:49:13.367Z,101377.25
2022-09-10T15:51:42.922Z,101381.06
2022-09-10T15:54:11.693Z,101379.50
2022-09-10T15:56:40.245Z,101375.63
2022-09-10T15:59:10.678Z,101381.69
2022-09-10T16:01:39.025Z,101381.16
2022-09-10T16:04:07.367Z,101367.69
2022-09-10T16:06:39.964Z,101370.22
2022-09-10T16:09:10.566Z,101370.22
2022-09-10T16:11:40.510Z,101368.06
2022-09-10T16:14:12.140Z,101368.88
2022-09-10T16:16:41.355Z,101371.34
2022-09-10T16:19:11.092Z,101367.25
2022-09-10T16:21:39.718Z,101373.00
2022-09-10T16:24:08.224Z,101361.75
2022-09-10T16:26:39.983Z,101363.69
2022-09-10T16:29:13.485Z,101372.16
2022-09-10T16:31:41.674Z,101370.53
2022-09-10T16:34:16.689Z,101363.91
2022-09-10T16:36:45.264Z,101367.72
2022-09-10T16:39:15.284Z,101369.38
2022-09-10T16:41:48.180Z,101367.69
2022-09-10T16:44:17.788Z,101365.28
2022-09-10T16:46:46.556Z,101361.16
2022-09-10T16:49:15.504Z,101358.16
2022-09-10T16:51:47.459Z,101358.69
2022-09-10T16:54:19.691Z,101358.91
2022-09-10T16:56:48.505Z,101356.44
2022-09-10T16:59:19.019Z,101354.22
2022-09-10T17:01:48.654Z,101358.84
2022-09-10T17:04:25.949Z,101347.88
2022-09-10T17:06:59.628Z,101361.34
2022-09-10T17:09:27.288Z,101371.50
2022-09-10T17:11:55.534Z,101371.53
2022-09-10T17:14:23.288Z,101364.69
2022-09-10T17:16:52.722Z,101361.44
2022-09-10T17:19:23.902Z,101362.25
2022-09-10T17:21:56.109Z,101367.19
2022-09-10T17:24:27.518Z,101365.56
2022-09-10T17:26:59.026Z,101362.03
2022-09-10T17:29:26.949Z,101365.06
2022-09-10T17:31:58.900Z,101360.41
2022-09-10T17:34:27.591Z,101370.53
2022-09-10T17:36:55.295Z,101374.38
2022-09-10T17:39:29.700Z,101372.44
2022-09-10T17:41:58.643Z,101371.38
2022-09-10T17:44:27.224Z,101379.84
2022-09-10T17:46:55.706Z,101380.41
2022-09-10T17:49:24.302Z,101377.41
2022-09-10T17:51:55.777Z,101376.31
2022-09-10T17:54:23.900Z,101375.78
2022-09-10T17:56:52.428Z,101372.78
2022-09-10T17:59:22.635Z,101382.13
2022-09-10T18:01:52.994Z,101372.00
2022-09-10T18:04:23.254Z,101373.63
2022-09-10T18:07:01.535Z,101375.00
2022-09-10T18:09:29.595Z,101374.22
2022-09-10T18:12:03.797Z,101373.13
2022-09-10T18:14:31.532Z,101374.47
2022-09-10T18:16:59.228Z,101382.16
2022-09-10T18:19:27.043Z,101375.88
2022-09-10T18:21:54.739Z,101377.50
2022-09-10T18:24:28.454Z,101379.94
2022-09-10T18:27:03.916Z,101376.69
2022-09-10T18:29:34.720Z,101372.56
2022-09-10T18:32:02.987Z,101381.03
2022-09-10T18:34:31.615Z,101375.56
2022-09-10T18:37:01.727Z,101381.31
2022-09-10T18:39:33.208Z,101381.06
2022-09-10T18:42:02.698Z,101379.41
2022-09-10T18:44:37.433Z,101382.94
2022-09-10T18:47:27.956Z,101388.16
2022-09-10T18:49:59.543Z,101393.31
2022-09-10T18:52:27.530Z,101398.78
2022-09-10T18:54:55.221Z,101392.78
2022-09-10T18:57:23.098Z,101403.44
2022-09-10T18:59:55.428Z,101406.44
2022-09-10T19:02:24.252Z,101401.78
2022-09-10T19:05:10.245Z,101403.16
2022-09-10T19:07:58.253Z,101404.50
2022-09-10T19:10:25.842Z,101416.28
2022-09-10T19:12:56.344Z,101416.28
2022-09-10T19:15:23.892Z,101415.72
2022-09-10T19:17:51.393Z,101413.81
2022-09-10T19:20:18.968Z,101415.72
2022-09-10T19:22:47.110Z,101411.09
2022-09-10T19:25:14.652Z,101414.34
2022-09-10T19:27:42.737Z,101428.84
2022-09-10T19:30:11.026Z,101426.91
2022-09-10T19:32:38.762Z,101436.47
2022-09-10T19:35:06.824Z,101434.00
2022-09-10T19:37:35.425Z,101434.00
2022-09-10T19:40:03.266Z,101439.75
2022-09-10T19:42:31.054Z,101432.09
2022-09-10T19:44:58.432Z,101437.00
2022-09-10T19:47:25.865Z,101436.19
2022-09-10T19:49:54.818Z,101435.94
2022-09-10T19:52:24.858Z,101431.81
2022-09-10T19:54:52.293Z,101430.19
2022-09-10T19:57:21.981Z,101440.28
2022-09-10T19:59:49.449Z,101441.38
2022-09-10T20:02:17.206Z,101446.03
2022-09-10T20:04:48.441Z,101442.72
2022-09-10T20:07:16.802Z,101443.28
2022-09-10T20:09:44.880Z,101431.56
2022-09-10T20:12:12.520Z,101440.00
2022-09-10T20:14:39.884Z,101433.44
2022-09-10T20:17:08.082Z,101427.97
2022-09-10T20:19:35.432Z,101434.25
2022-09-10T20:22:03.291Z,101429.88
2022-09-10T20:24:30.824Z,101423.91
2022-09-10T20:26:58.747Z,101426.91
2022-09-10T20:29:26.748Z,101431.81
2022-09-10T20:31:54.283Z,101434.81
2022-09-10T20:34:24.164Z,101440.53
2022-09-10T20:36:52.461Z,101438.06
2022-09-10T20:39:22.800Z,101433.44
2022-09-10T20:41:50.694Z,101436.44
2022-09-10T20:44:20.325Z,101433.44
2022-09-10T20:46:47.927Z,101433.16
2022-09-10T20:49:16.630Z,101433.09
2022-09-10T20:51:44.909Z,101430.97
2022-09-10T20:54:15.614Z,101437.22
2022-09-10T20:56:44.402Z,101430.38
2022-09-10T20:59:13.150Z,101436.34
2022-09-10T21:01:41.531Z,101428.47
2022-09-10T21:04:09.170Z,101441.81
2022-09-10T21:06:36.913Z,101433.34
2022-09-10T21:09:05.524Z,101425.16
2022-09-10T21:11:35.308Z,101428.19
2022-09-10T21:14:05.001Z,101431.16
2022-09-10T21:16:37.057Z,101435.25
2022-09-10T21:19:12.216Z,101435.25
2022-09-10T21:21:41.081Z,101426.53
2022-09-10T21:24:20.544Z,101423.78
2022-09-10T21:26:49.550Z,101427.59
2022-09-10T21:29:21.668Z,101432.75
2022-09-10T21:31:54.960Z,101429.47
2022-09-10T21:34:23.964Z,101433.59
2022-09-10T21:36:51.850Z,101436.34
2022-09-10T21:39:20.255Z,101437.97
2022-09-10T21:41:50.155Z,101436.88
2022-09-10T21:44:23.478Z,101437.44
2022-09-10T21:46:52.218Z,101435.50
2022-09-10T21:49:21.989Z,101441.50
2022-09-10T21:51:49.954Z,101447.78
2022-09-10T21:54:21.207Z,101446.69
2022-09-10T21:56:49.668Z,101439.59
2022-09-10T21:59:17.620Z,101439.34
2022-09-10T22:01:47.578Z,101433.03
2022-09-10T22:04:21.493Z,101436.88
2022-09-10T22:06:50.906Z,101435.78
2022-09-10T22:09:18.637Z,101442.88
2022-09-10T22:11:50.427Z,101439.59
2022-09-10T22:14:21.793Z,101441.50
2022-09-10T22:16:50.005Z,101439.03
2022-09-10T22:19:20.324Z,101443.38
2022-09-10T22:21:48.218Z,101452.06
2022-09-10T22:24:17.631Z,101449.13
2022-09-10T22:26:46.309Z,101448.84
2022-09-10T22:29:17.428Z,101447.75
2022-09-10T22:31:44.974Z,101444.75
2022-09-10T22:34:16.951Z,101445.56
2022-09-10T22:36:46.580Z,101437.94
2022-09-10T22:39:17.518Z,101444.19
2022-09-10T22:41:46.498Z,101440.97
2022-09-10T22:44:14.043Z,101437.94
2022-09-10T22:46:41.880Z,101437.41
2022-09-10T22:49:10.296Z,101436.56
2022-09-10T22:51:43.724Z,101439.00
2022-09-10T22:54:12.449Z,101436.28
2022-09-10T22:56:40.456Z,101446.66
2022-09-10T22:59:12.191Z,101449.38
2022-09-10T23:01:48.707Z,101439.56
2022-09-10T23:04:16.714Z,101437.66
2022-09-10T23:06:44.336Z,101435.44
2022-09-10T23:09:17.006Z,101436.56
2022-09-10T23:11:46.527Z,101437.66
2022-09-10T23:14:22.482Z,101441.19
2022-09-10T23:16:52.172Z,101432.72
2022-09-10T23:19:22.410Z,101436.03
2022-09-10T23:21:55.500Z,101433.00
2022-09-10T23:24:26.683Z,101432.47
2022-09-10T23:26:54.619Z,101431.06
2022-09-10T23:29:25.530Z,101431.31
2022-09-10T23:31:54.742Z,101430.78
2022-09-10T23:34:23.203Z,101435.13
2022-09-10T23:36:51.932Z,101429.13
2022-09-10T23:39:21.801Z,101426.97
2022-09-10T23:41:55.687Z,101428.91
2022-09-10T23:44:23.757Z,101431.31
2022-09-10T23:46:51.450Z,101419.06
2022-09-10T23:49:20.593Z,101425.34
2022-09-10T23:51:49.333Z,101422.34
2022-09-10T23:54:17.420Z,101424.25
2022-09-10T23:56:45.101Z,101428.06
2022-09-10T23:59:13.194Z,101429.97
